createdAt,value
2023-04-15T00:01:19.112Z,99.0
2023-04-15T00:03:50.209Z,99.0
2023-04-15T00:06:20.928Z,99.0
2023-04-15T00:09:01.752Z,99.0
2023-04-15T00:14:02.453Z,99.0
2023-04-15T00:16:33.059Z,99.0
2023-04-15T00:19:03.722Z,99.0
2023-04-15T00:21:34.280Z,99.0
2023-04-15T00:24:14.818Z,99.0
2023-04-15T00:26:45.367Z,99.0
2023-04-15T00:29:15.918Z,99.0
2023-04-15T00:31:46.474Z,99.0
2023-04-15T00:34:17.190Z,99.0
2023-04-15T00:36:47.758Z,99.0
2023-04-15T00:39:28.295Z,99.0
2023-04-15T00:41:58.856Z,99.0
2023-04-15T00:44:29.430Z,99.0
2023-04-15T00:46:59.989Z,99.0
2023-04-15T00:49:30.549Z,99.0
2023-04-15T00:54:51.105Z,99.0
2023-04-15T00:57:21.666Z,99.0
2023-04-15T00:59:52.214Z,99.0
2023-04-15T01:02:22.954Z,99.0
2023-04-15T01:04:53.959Z,99.0
2023-04-15T01:07:34.582Z,99.0
2023-04-15T01:10:05.156Z,99.0
2023-04-15T01:12:35.703Z,99.0
2023-04-15T01:15:06.262Z,99.0
2023-04-15T01:17:36.919Z,99.0
2023-04-15T01:20:07.678Z,99.0
2023-04-15T01:22:48.265Z,99.0
2023-04-15T01:25:18.846Z,99.0
2023-04-15T01:27:49.396Z,99.0
2023-04-15T01:30:19.981Z,99.0
2023-04-15T01:35:20.530Z,99.0
2023-04-15T01:38:01.110Z,99.0
2023-04-15T01:40:31.707Z,99.0
2023-04-15T01:43:02.247Z,99.0
2023-04-15T01:45:32.820Z,99.0
2023-04-15T01:48:03.558Z,99.0
2023-04-15T01:50:34.184Z,99.0
2023-04-15T01:53:14.882Z,99.0
2023-04-15T01:55:45.454Z,99.0
2023-04-15T01:58:16.003Z,99.0
2023-04-15T02:00:46.609Z,99.0
2023-04-15T02:03:17.351Z,99.0
2023-04-15T02:05:58.095Z,99.0
2023-04-15T02:08:28.636Z,99.0
2023-04-15T02:10:59.224Z,99.0
2023-04-15T02:15:59.859Z,99.0
2023-04-15T02:18:30.503Z,99.0
2023-04-15T02:21:11.074Z,99.0
2023-04-15T02:23:41.649Z,99.0
2023-04-15T02:26:14.509Z,99.0
2023-04-15T02:28:45.059Z,99.0
2023-04-15T02:31:15.645Z,99.0
2023-04-15T02:33:46.247Z,99.0
2023-04-15T02:36:26.852Z,99.0
2023-04-15T02:38:57.404Z,99.0
2023-04-15T02:41:27.984Z,99.0
2023-04-15T02:43:58.570Z,99.0
2023-04-15T02:46:31.966Z,99.0
2023-04-15T02:49:02.877Z,99.0
2023-04-15T02:51:43.587Z,99.0
2023-04-15T02:56:44.129Z,99.0
2023-04-15T02:59:14.707Z,99.0
2023-04-15T03:01:45.399Z,99.0
2023-04-15T03:04:26.197Z,99.0
2023-04-15T03:06:56.759Z,99.0
2023-04-15T03:09:27.320Z,99.0
2023-04-15T03:11:57.895Z,99.0
2023-04-15T03:14:28.419Z,99.0
2023-04-15T03:16:59.002Z,99.0
2023-04-15T03:19:39.529Z,99.0
2023-04-15T03:22:10.090Z,99.0
2023-04-15T03:24:40.619Z,99.0
2023-04-15T03:27:11.182Z,99.0
2023-04-15T03:29:41.724Z,99.0
2023-04-15T03:32:12.280Z,99.0
2023-04-15T03:37:22.871Z,99.0
2023-04-15T03:39:53.427Z,99.0
2023-04-15T03:42:24.033Z,99.0
2023-04-15T03:44:54.570Z,99.0
2023-04-15T03:47:25.124Z,99.0
2023-04-15T03:50:05.743Z,99.0
2023-04-15T03:52:36.318Z,99.0
2023-04-15T03:55:06.881Z,99.0
2023-04-15T03:57:37.413Z,99.0
2023-04-15T04:00:08.001Z,99.0
2023-04-15T04:02:59.125Z,99.0
2023-04-15T04:05:20.227Z,99.0
2023-04-15T04:07:50.788Z,99.0
2023-04-15T04:10:21.330Z,99.0
2023-04-15T04:13:01.882Z,99.0
2023-04-15T04:18:12.553Z,99.0
2023-04-15T04:20:43.138Z,99.0
2023-04-15T04:23:13.681Z,99.0
2023-04-15T04:25:44.261Z,99.0
2023-04-15T04:28:14.813Z,99.0
2023-04-15T04:30:45.353Z,99.0
2023-04-15T04:33:25.901Z,99.0
2023-04-15T04:35:56.521Z,99.0
2023-04-15T04:38:27.063Z,99.0
2023-04-15T04:40:57.628Z,99.0
2023-04-15T04:43:28.186Z,99.0
2023-04-15T04:45:58.796Z,99.0
2023-04-15T04:48:39.469Z,99.0
2023-04-15T04:51:10.067Z,99.0
2023-04-15T04:53:40.666Z,99.0
2023-04-15T04:58:41.256Z,99.0
2023-04-15T05:03:51.998Z,99.0
2023-04-15T05:06:22.817Z,99.0
2023-04-15T05:08:53.403Z,99.0
2023-04-15T05:11:24.403Z,99.0
2023-04-15T05:13:54.955Z,99.0
2023-04-15T05:16:35.592Z,99.0
2023-04-15T05:19:06.141Z,99.0
2023-04-15T05:21:38.313Z,99.0
2023-04-15T05:24:09.907Z,99.0
2023-04-15T05:26:41.229Z,99.0
2023-04-15T05:29:13.019Z,99.0
2023-04-15T05:31:53.595Z,99.0
2023-04-15T05:34:24.132Z,99.0
2023-04-15T05:39:24.674Z,99.0
2023-04-15T05:41:55.253Z,99.0
2023-04-15T05:44:25.823Z,99.0
2023-04-15T05:47:06.417Z,99.0
2023-04-15T05:49:36.961Z,99.0
2023-04-15T05:52:07.526Z,99.0
2023-04-15T05:54:38.747Z,99.0
2023-04-15T05:57:09.575Z,99.0
2023-04-15T05:59:40.286Z,99.0
2023-04-15T06:02:20.891Z,99.0
2023-04-15T06:04:51.588Z,99.0
2023-04-15T06:07:22.314Z,99.0
2023-04-15T06:09:52.881Z,99.0
2023-04-15T06:12:23.467Z,99.0
2023-04-15T06:14:53.997Z,99.0
2023-04-15T06:20:04.562Z,99.0
2023-04-15T06:22:35.090Z,99.0
2023-04-15T06:25:05.632Z,99.0
2023-04-15T06:27:36.161Z,99.0
2023-04-15T06:30:16.725Z,99.0
2023-04-15T06:32:47.407Z,99.0
2023-04-15T06:35:18.151Z,99.0
2023-04-15T06:37:48.736Z,99.0
2023-04-15T06:40:19.301Z,99.0
2023-04-15T06:42:49.859Z,99.0
2023-04-15T06:45:30.446Z,99.0
2023-04-15T06:48:01.227Z,99.0
2023-04-15T06:50:31.805Z,99.0
2023-04-15T06:53:02.344Z,99.0
2023-04-15T06:55:32.944Z,99.0
2023-04-15T07:00:43.559Z,99.0
2023-04-15T07:03:14.245Z,99.0
2023-04-15T07:05:44.848Z,99.0
2023-04-15T07:08:15.398Z,99.0
2023-04-15T07:10:55.950Z,99.0
2023-04-15T07:13:26.528Z,99.0
2023-04-15T07:16:07.143Z,99.0
2023-04-15T07:18:37.786Z,99.0
2023-04-15T07:21:08.339Z,99.0
2023-04-15T07:23:38.924Z,99.0
2023-04-15T07:26:09.514Z,99.0
2023-04-15T07:28:50.089Z,99.0
2023-04-15T07:31:21.156Z,99.0
2023-04-15T07:33:51.883Z,99.0
2023-04-15T07:36:22.467Z,99.0
2023-04-15T07:41:23.007Z,99.0
2023-04-15T07:44:03.541Z,99.0
2023-04-15T07:46:34.222Z,99.0
2023-04-15T07:49:05.001Z,99.0
2023-04-15T07:51:35.629Z,99.0
2023-04-15T07:54:06.185Z,99.0
2023-04-15T07:56:36.749Z,99.0
2023-04-15T07:59:17.340Z,99.0
2023-04-15T08:01:47.960Z,99.0
2023-04-15T08:04:18.841Z,99.0
2023-04-15T08:06:49.725Z,99.0
2023-04-15T08:09:20.273Z,99.0
2023-04-15T08:11:50.855Z,99.0
2023-04-15T08:14:31.409Z,99.0
2023-04-15T08:17:01.958Z,99.0
2023-04-15T08:22:02.537Z,99.0
2023-04-15T08:24:28.877Z,99.0
2023-04-15T08:27:10.208Z,99.0
2023-04-15T08:29:41.045Z,99.0
2023-04-15T08:32:11.611Z,99.0
2023-04-15T08:34:42.228Z,99.0
2023-04-15T08:37:12.895Z,99.0
2023-04-15T08:39:43.434Z,99.0
2023-04-15T08:42:24.045Z,99.0
2023-04-15T08:45:04.646Z,99.0
2023-04-15T08:47:35.259Z,99.0
2023-04-15T08:50:05.890Z,99.0
2023-04-15T08:52:36.443Z,99.0
2023-04-15T08:55:07.028Z,1.0
2023-04-15T09:02:47.922Z,4.0
2023-04-15T09:05:18.608Z,6.0
2023-04-15T09:07:49.169Z,7.0
2023-04-15T09:10:19.766Z,9.0
2023-04-15T09:13:00.335Z,9.0
2023-04-15T09:15:30.905Z,9.0
2023-04-15T09:20:31.476Z,10.0
2023-04-15T09:23:02.058Z,10.0
2023-04-15T09:25:34.376Z,11.0
2023-04-15T09:28:15.499Z,11.0
2023-04-15T09:30:46.438Z,13.0
2023-04-15T09:33:17.516Z,13.0
2023-04-15T09:35:48.071Z,12.0
2023-04-15T09:38:18.637Z,14.0
2023-04-15T09:43:29.178Z,15.0
2023-04-15T09:45:59.812Z,14.0
2023-04-15T09:48:30.473Z,15.0
2023-04-15T09:51:01.071Z,18.0
2023-04-15T09:53:31.928Z,17.0
2023-04-15T09:56:12.605Z,18.0
2023-04-15T09:58:43.207Z,20.0
2023-04-15T10:01:13.863Z,22.0
2023-04-15T10:03:45.034Z,25.0
2023-04-15T10:06:16.054Z,26.0
2023-04-15T10:08:46.565Z,27.0
2023-04-15T10:11:27.329Z,27.0
2023-04-15T10:13:58.246Z,27.0
2023-04-15T10:16:28.906Z,27.0
2023-04-15T10:18:59.465Z,30.0
2023-04-15T10:24:00.284Z,29.0
2023-04-15T10:26:40.932Z,27.0
2023-04-15T10:29:11.491Z,25.0
2023-04-15T10:31:42.249Z,24.0
2023-04-15T10:34:13.409Z,23.0
2023-04-15T10:36:43.951Z,23.0
2023-04-15T10:39:14.540Z,22.0
2023-04-15T10:41:55.098Z,22.0
2023-04-15T10:44:25.662Z,23.0
2023-04-15T10:46:56.499Z,22.0
2023-04-15T10:49:27.239Z,22.0
2023-04-15T10:51:57.820Z,22.0
2023-04-15T10:54:38.396Z,20.0
2023-04-15T10:57:08.988Z,19.0
2023-04-15T10:59:39.562Z,19.0
2023-04-15T11:04:41.736Z,20.0
2023-04-15T11:07:13.229Z,22.0
2023-04-15T11:09:53.790Z,23.0
2023-04-15T11:12:24.337Z,24.0
2023-04-15T11:14:54.922Z,23.0
2023-04-15T11:17:25.491Z,23.0
2023-04-15T11:19:56.186Z,22.0
2023-04-15T11:22:26.741Z,20.0
2023-04-15T11:25:07.312Z,19.0
2023-04-15T11:27:37.867Z,18.0
2023-04-15T11:30:08.434Z,17.0
2023-04-15T11:32:39.128Z,15.0
2023-04-15T11:35:09.750Z,15.0
2023-04-15T11:37:40.314Z,15.0
2023-04-15T11:40:20.961Z,17.0
2023-04-15T11:45:21.510Z,17.0
2023-04-15T11:47:52.188Z,15.0
2023-04-15T11:50:22.820Z,15.0
2023-04-15T11:53:03.409Z,14.0
2023-04-15T11:55:34.152Z,13.0
2023-04-15T11:58:04.682Z,13.0
2023-04-15T12:00:36.717Z,12.0
2023-04-15T12:03:07.558Z,13.0
2023-04-15T12:05:38.529Z,15.0
2023-04-15T12:08:19.086Z,15.0
2023-04-15T12:10:49.671Z,14.0
2023-04-15T12:13:20.232Z,14.0
2023-04-15T12:15:50.805Z,15.0
2023-04-15T12:18:21.498Z,15.0
2023-04-15T12:20:52.053Z,14.0
2023-04-15T12:26:02.633Z,12.0
2023-04-15T12:28:33.193Z,11.0
2023-04-15T12:31:03.920Z,9.0
2023-04-15T12:33:34.530Z,8.0
2023-04-15T12:36:15.109Z,8.0
2023-04-15T12:38:55.811Z,7.0
2023-04-15T12:41:26.393Z,7.0
2023-04-15T12:43:56.956Z,8.0
2023-04-15T12:46:27.709Z,7.0
2023-04-15T12:48:58.317Z,7.0
2023-04-15T12:51:28.882Z,7.0
2023-04-15T12:54:09.463Z,6.0
2023-04-15T12:56:40.014Z,6.0
2023-04-15T12:59:10.581Z,7.0
2023-04-15T13:01:41.356Z,7.0
2023-04-15T13:06:52.055Z,7.0
2023-04-15T13:09:22.643Z,7.0
2023-04-15T13:11:53.238Z,7.0
2023-04-15T13:14:23.871Z,8.0
2023-04-15T13:16:54.523Z,7.0
2023-04-15T13:19:25.061Z,8.0
2023-04-15T13:22:05.614Z,8.0
2023-04-15T13:24:36.178Z,8.0
2023-04-15T13:27:06.751Z,9.0
2023-04-15T13:29:37.312Z,9.0
2023-04-15T13:32:07.947Z,10.0
2023-04-15T13:34:38.524Z,10.0
2023-04-15T13:37:19.127Z,11.0
2023-04-15T13:39:49.665Z,12.0
2023-04-15T13:42:20.203Z,12.0
2023-04-15T13:47:20.838Z,12.0
2023-04-15T13:49:51.435Z,13.0
2023-04-15T13:52:32.024Z,13.0
2023-04-15T13:55:30.432Z,12.0
2023-04-15T13:57:31.022Z,13.0
2023-04-15T14:00:01.635Z,13.0
2023-04-15T14:02:32.641Z,14.0
2023-04-15T14:05:13.541Z,14.0
2023-04-15T14:07:44.081Z,14.0
2023-04-15T14:10:14.842Z,14.0
2023-04-15T14:12:45.410Z,14.0
2023-04-15T14:15:15.963Z,14.0
2023-04-15T14:17:46.575Z,13.0
2023-04-15T14:20:27.664Z,13.0
2023-04-15T14:22:58.201Z,13.0
2023-04-15T14:28:08.792Z,13.0
2023-04-15T14:30:39.480Z,13.0
2023-04-15T14:33:10.123Z,13.0
2023-04-15T14:35:50.808Z,13.0
2023-04-15T14:38:21.910Z,13.0
2023-04-15T14:40:52.600Z,13.0
2023-04-15T14:43:23.171Z,13.0
2023-04-15T14:45:55.692Z,13.0
2023-04-15T14:48:16.489Z,12.0
2023-04-15T14:50:57.087Z,12.0
2023-04-15T14:53:27.711Z,11.0
2023-04-15T14:55:58.334Z,11.0
2023-04-15T14:58:28.984Z,11.0
2023-04-15T15:00:59.534Z,11.0
2023-04-15T15:03:30.395Z,11.0
2023-04-15T15:08:51.492Z,11.0
2023-04-15T15:11:12.381Z,11.0
2023-04-15T15:13:43.021Z,11.0
2023-04-15T15:16:25.025Z,11.0
2023-04-15T15:18:55.704Z,11.0
2023-04-15T15:21:26.555Z,11.0
2023-04-15T15:23:57.109Z,11.0
2023-04-15T15:26:27.684Z,11.0
2023-04-15T15:28:58.241Z,10.0
2023-04-15T15:31:28.944Z,10.0
2023-04-15T15:34:09.552Z,9.0
2023-04-15T15:36:50.106Z,9.0
2023-04-15T15:39:20.664Z,9.0
2023-04-15T15:41:51.229Z,9.0
2023-04-15T15:44:21.863Z,9.0
2023-04-15T15:49:24.745Z,9.0
2023-04-15T15:51:55.304Z,8.0
2023-04-15T15:54:25.873Z,8.0
2023-04-15T15:56:56.423Z,7.0
2023-04-15T15:59:36.979Z,7.0
2023-04-15T16:02:07.724Z,7.0
2023-04-15T16:04:48.735Z,6.0
2023-04-15T16:07:19.341Z,6.0
2023-04-15T16:09:49.906Z,5.0
2023-04-15T16:12:20.505Z,5.0
2023-04-15T16:14:51.193Z,3.0
2023-04-15T16:17:21.817Z,2.0
2023-04-15T16:20:10.627Z,1.0
2023-04-15T16:22:31.212Z,99.0
2023-04-15T16:25:01.784Z,99.0
2023-04-15T16:30:02.362Z,99.0
2023-04-15T16:32:43.013Z,99.0
2023-04-15T16:35:13.789Z,99.0
2023-04-15T16:37:44.349Z,99.0
2023-04-15T16:40:14.914Z,99.0
2023-04-15T16:42:45.549Z,99.0
2023-04-15T16:45:16.118Z,99.0
2023-04-15T16:47:56.762Z,99.0
2023-04-15T16:50:27.375Z,99.0
2023-04-15T16:52:57.953Z,99.0
2023-04-15T16:55:28.509Z,99.0
2023-04-15T16:58:12.464Z,99.0
2023-04-15T17:00:33.091Z,99.0
2023-04-15T17:03:13.994Z,99.0
2023-04-15T17:05:44.944Z,99.0
2023-04-15T17:10:45.539Z,99.0
2023-04-15T17:13:16.112Z,99.0
2023-04-15T17:15:46.830Z,99.0
2023-04-15T17:18:27.442Z,99.0
2023-04-15T17:20:58.006Z,99.0
2023-04-15T17:23:28.583Z,99.0
2023-04-15T17:25:59.135Z,99.0
2023-04-15T17:28:29.795Z,99.0
2023-04-15T17:34:15.826Z,99.0
2023-04-15T17:36:10.187Z,99.0
2023-04-15T17:38:40.732Z,99.0
2023-04-15T17:41:11.313Z,99.0
2023-04-15T17:43:41.898Z,99.0
2023-04-15T17:46:22.623Z,99.0
2023-04-15T17:51:23.284Z,99.0
2023-04-15T17:53:53.813Z,99.0
2023-04-15T17:56:24.850Z,99.0
2023-04-15T17:58:55.421Z,99.0
2023-04-15T18:01:36.089Z,99.0
2023-04-15T18:04:07.546Z,99.0
2023-04-15T18:06:38.632Z,99.0
2023-04-15T18:09:09.237Z,99.0
2023-04-15T18:11:39.808Z,99.0
2023-04-15T18:14:11.225Z,99.0
2023-04-15T18:16:54.518Z,99.0
2023-04-15T18:19:25.061Z,99.0
2023-04-15T18:21:55.607Z,99.0
2023-04-15T18:24:26.156Z,99.0
2023-04-15T18:26:59.187Z,99.0
2023-04-15T18:32:09.912Z,99.0
2023-04-15T18:34:40.487Z,99.0
2023-04-15T18:37:11.118Z,99.0
2023-04-15T18:39:41.711Z,99.0
2023-04-15T18:42:12.286Z,99.0
2023-04-15T18:44:42.861Z,99.0
2023-04-15T18:47:24.672Z,99.0
2023-04-15T18:49:55.863Z,99.0
2023-04-15T18:52:26.427Z,99.0
2023-04-15T18:54:57.001Z,99.0
2023-04-15T18:57:35.430Z,99.0
2023-04-15T19:00:08.756Z,99.0
2023-04-15T19:02:39.472Z,99.0
2023-04-15T19:05:10.395Z,99.0
2023-04-15T19:07:40.948Z,99.0
2023-04-15T19:12:41.502Z,99.0
2023-04-15T19:15:22.057Z,99.0
2023-04-15T19:17:52.703Z,99.0
2023-04-15T19:20:23.358Z,99.0
2023-04-15T19:22:58.181Z,99.0
2023-04-15T19:25:28.750Z,99.0
2023-04-15T19:27:59.982Z,99.0
2023-04-15T19:30:40.762Z,99.0
2023-04-15T19:33:11.531Z,99.0
2023-04-15T19:35:42.155Z,99.0
2023-04-15T19:38:12.718Z,99.0
2023-04-15T19:40:43.262Z,99.0
2023-04-15T19:43:13.822Z,99.0
2023-04-15T19:45:54.515Z,99.0
2023-04-15T19:48:25.321Z,99.0
2023-04-15T19:53:25.896Z,99.0
2023-04-15T19:55:56.520Z,99.0
2023-04-15T19:58:27.067Z,99.0
2023-04-15T20:01:07.712Z,99.0
2023-04-15T20:03:38.839Z,99.0
2023-04-15T20:06:09.790Z,99.0
2023-04-15T20:08:40.331Z,99.0
2023-04-15T20:11:10.909Z,99.0
2023-04-15T20:13:46.969Z,99.0
2023-04-15T20:16:17.737Z,99.0
2023-04-15T20:18:48.618Z,99.0
2023-04-15T20:21:19.195Z,99.0
2023-04-15T20:23:49.714Z,99.0
2023-04-15T20:26:20.290Z,99.0
2023-04-15T20:29:00.839Z,99.0
2023-04-15T20:34:01.436Z,99.0
2023-04-15T20:36:32.651Z,99.0
2023-04-15T20:39:03.328Z,99.0
2023-04-15T20:41:33.964Z,99.0
2023-04-15T20:44:14.554Z,99.0
2023-04-15T20:46:55.162Z,99.0
2023-04-15T20:49:25.778Z,99.0
2023-04-15T20:51:56.342Z,99.0
2023-04-15T20:54:26.887Z,99.0
2023-04-15T20:56:57.485Z,99.0
2023-04-15T20:59:38.084Z,99.0
2023-04-15T21:02:08.912Z,99.0
2023-04-15T21:04:39.779Z,99.0
2023-04-15T21:07:10.377Z,99.0
2023-04-15T21:09:40.975Z,99.0
2023-04-15T21:14:51.529Z,99.0
2023-04-15T21:17:22.120Z,99.0
2023-04-15T21:19:52.749Z,99.0
2023-04-15T21:22:23.337Z,99.0
2023-04-15T21:24:53.908Z,99.0
2023-04-15T21:27:34.500Z,99.0
2023-04-15T21:30:05.074Z,99.0
2023-04-15T21:32:35.658Z,99.0
2023-04-15T21:35:06.310Z,99.0
2023-04-15T21:37:36.855Z,99.0
2023-04-15T21:40:07.399Z,99.0
2023-04-15T21:42:47.954Z,99.0
2023-04-15T21:48:18.244Z,99.0
2023-04-15T21:50:18.852Z,99.0
2023-04-15T21:55:19.397Z,99.0
2023-04-15T21:57:59.927Z,99.0
2023-04-15T22:00:30.487Z,99.0
2023-04-15T22:03:01.788Z,99.0
2023-04-15T22:05:32.647Z,99.0
2023-04-15T22:08:03.196Z,99.0
2023-04-15T22:10:43.756Z,99.0
2023-04-15T22:13:14.308Z,99.0
2023-04-15T22:15:44.953Z,99.0
2023-04-15T22:18:15.510Z,99.0
2023-04-15T22:20:46.106Z,99.0
2023-04-15T22:23:17.494Z,99.0
2023-04-15T22:25:58.158Z,99.0
2023-04-15T22:28:28.671Z,99.0
2023-04-15T22:30:59.287Z,99.0
2023-04-15T22:35:59.926Z,99.0
2023-04-15T22:38:30.496Z,99.0
2023-04-15T22:41:11.073Z,99.0
2023-04-15T22:43:41.655Z,99.0
2023-04-15T22:46:12.308Z,99.0
2023-04-15T22:48:43.016Z,99.0
2023-04-15T22:51:13.586Z,99.0
2023-04-15T22:53:44.196Z,99.0
2023-04-15T22:56:24.773Z,99.0
2023-04-15T22:59:05.359Z,99.0
2023-04-15T23:01:36.076Z,99.0
2023-04-15T23:04:23.135Z,99.0
2023-04-15T23:06:28.808Z,99.0
2023-04-15T23:08:59.364Z,99.0
2023-04-15T23:11:40.164Z,99.0
2023-04-15T23:16:50.994Z,99.0
2023-04-15T23:19:22.046Z,99.0
2023-04-15T23:21:42.628Z,99.0
2023-04-15T23:24:23.174Z,99.0
2023-04-15T23:27:03.719Z,99.0
2023-04-15T23:29:34.287Z,99.0
2023-04-15T23:32:05.078Z,99.0
2023-04-15T23:34:35.688Z,99.0
2023-04-15T23:37:06.326Z,99.0
2023-04-15T23:39:46.929Z,99.0
2023-04-15T23:42:17.516Z,99.0
2023-04-15T23:44:48.089Z,99.0
2023-04-15T23:47:18.728Z,99.0
2023-04-15T23:49:49.350Z,99.0
2023-04-15T23:52:19.916Z,99.0
2023-04-15T23:57:30.470Z,99.0
